createdAt,value
2022-08-29T00:00:31.062Z,72.32
2022-08-29T00:03:00.257Z,72.58
2022-08-29T00:05:32.995Z,72.85
2022-08-29T00:08:01.770Z,73.11
2022-08-29T00:10:29.870Z,73.37
2022-08-29T00:12:57.765Z,73.73
2022-08-29T00:15:26.059Z,73.84
2022-08-29T00:17:52.790Z,73.86
2022-08-29T00:20:22.972Z,73.69
2022-08-29T00:22:58.515Z,73.64
2022-08-29T00:25:25.689Z,73.88
2022-08-29T00:27:52.524Z,73.69
2022-08-29T00:30:20.447Z,74.07
2022-08-29T00:32:47.366Z,73.88
2022-08-29T00:35:17.272Z,74.02
2022-08-29T00:37:44.506Z,74.07
2022-08-29T00:40:14.971Z,73.95
2022-08-29T00:42:41.896Z,74.17
2022-08-29T00:45:10.659Z,74.07
2022-08-29T00:47:40.789Z,74.31
2022-08-29T00:50:09.089Z,74.11
2022-08-29T00:52:43.548Z,74.22
2022-08-29T00:55:14.071Z,74.39
2022-08-29T00:57:43.510Z,74.54
2022-08-29T01:00:12.088Z,74.63
2022-08-29T01:02:40.811Z,74.95
2022-08-29T01:05:11.783Z,74.92
2022-08-29T01:07:40.857Z,75.19
2022-08-29T01:10:13.515Z,75.19
2022-08-29T01:12:40.834Z,75.28
2022-08-29T01:15:10.492Z,75.34
2022-08-29T01:17:42.581Z,75.20
2022-08-29T01:20:14.662Z,75.53
2022-08-29T01:23:10.017Z,75.68
2022-08-29T01:25:39.914Z,75.80
2022-08-29T01:28:12.140Z,75.71
2022-08-29T01:30:58.006Z,75.78
2022-08-29T01:33:24.850Z,75.97
2022-08-29T01:35:51.947Z,76.43
2022-08-29T01:38:27.806Z,76.49
2022-08-29T01:40:56.635Z,76.77
2022-08-29T01:43:23.403Z,76.51
2022-08-29T01:45:50.639Z,76.66
2022-08-29T01:48:18.890Z,76.94
2022-08-29T01:50:46.365Z,77.07
2022-08-29T01:53:13.816Z,76.57
2022-08-29T01:55:40.710Z,76.66
2022-08-29T01:58:07.747Z,76.79
2022-08-29T02:00:36.033Z,76.36
2022-08-29T02:03:03.509Z,76.35
2022-08-29T02:05:30.900Z,76.38
2022-08-29T02:07:58.217Z,76.79
2022-08-29T02:10:25.114Z,76.88
2022-08-29T02:12:53.614Z,76.73
2022-08-29T02:15:21.583Z,76.88
2022-08-29T02:17:48.638Z,77.16
2022-08-29T02:20:15.427Z,77.32
2022-08-29T02:22:42.423Z,77.55
2022-08-29T02:25:29.736Z,77.80
2022-08-29T02:27:58.700Z,78.06
2022-08-29T02:30:25.816Z,77.96
2022-08-29T02:32:52.762Z,78.00
2022-08-29T02:35:19.633Z,78.31
2022-08-29T02:37:46.349Z,78.17
2022-08-29T02:40:13.095Z,78.79
2022-08-29T02:42:40.130Z,78.56
2022-08-29T02:45:07.290Z,78.93
2022-08-29T02:47:36.636Z,78.81
2022-08-29T02:50:09.412Z,78.89
2022-08-29T02:52:40.077Z,78.89
2022-08-29T02:55:08.368Z,78.87
2022-08-29T02:57:35.106Z,79.30
2022-08-29T03:00:02.033Z,79.10
2022-08-29T03:02:28.795Z,79.47
2022-08-29T03:04:55.478Z,79.70
2022-08-29T03:07:22.212Z,80.10
2022-08-29T03:09:48.896Z,80.01
2022-08-29T03:12:15.605Z,80.01
2022-08-29T03:14:42.302Z,80.25
2022-08-29T03:17:09.014Z,80.62
2022-08-29T03:19:37.321Z,80.73
2022-08-29T03:22:04.408Z,80.83
2022-08-29T03:24:31.531Z,80.96
2022-08-29T03:26:58.743Z,80.78
2022-08-29T03:29:26.239Z,80.82
2022-08-29T03:31:53.963Z,81.04
2022-08-29T03:34:20.788Z,81.13
2022-08-29T03:36:47.498Z,81.54
2022-08-29T03:39:14.262Z,81.50
2022-08-29T03:41:41.005Z,81.36
2022-08-29T03:44:07.936Z,81.58
2022-08-29T03:46:36.290Z,81.80
2022-08-29T03:49:03.277Z,81.70
2022-08-29T03:51:31.701Z,81.83
2022-08-29T03:53:58.478Z,81.78
2022-08-29T03:56:25.957Z,81.87
2022-08-29T03:58:53.650Z,81.96
2022-08-29T04:01:24.459Z,81.79
2022-08-29T04:03:51.326Z,81.97
2022-08-29T04:06:18.600Z,81.93
2022-08-29T04:08:47.427Z,82.06
2022-08-29T04:11:15.101Z,82.13
2022-08-29T04:13:42.271Z,82.52
2022-08-29T04:16:14.826Z,82.43
2022-08-29T04:18:42.020Z,82.11
2022-08-29T04:21:08.891Z,82.30
2022-08-29T04:23:37.371Z,82.45
2022-08-29T04:26:31.290Z,82.22
2022-08-29T04:28:55.005Z,82.41
2022-08-29T04:31:22.314Z,82.28
2022-08-29T04:33:50.286Z,82.30
2022-08-29T04:36:17.145Z,82.20
2022-08-29T04:38:43.895Z,81.97
2022-08-29T04:41:15.028Z,81.75
2022-08-29T04:43:42.682Z,81.80
2022-08-29T04:46:16.346Z,81.92
2022-08-29T04:48:52.641Z,82.19
2022-08-29T04:51:19.725Z,82.14
2022-08-29T04:53:46.834Z,82.36
2022-08-29T04:56:14.100Z,82.53
2022-08-29T04:58:44.137Z,82.34
2022-08-29T05:01:19.436Z,82.67
2022-08-29T05:03:46.322Z,82.77
2022-08-29T05:06:14.879Z,82.60
2022-08-29T05:08:43.061Z,82.48
2022-08-29T05:11:13.006Z,82.78
2022-08-29T05:13:39.699Z,82.79
2022-08-29T05:16:10.973Z,82.88
2022-08-29T05:18:38.515Z,82.70
2022-08-29T05:21:06.254Z,82.87
2022-08-29T05:23:33.229Z,83.15
2022-08-29T05:26:02.484Z,82.87
2022-08-29T05:28:30.440Z,83.21
2022-08-29T05:30:57.680Z,83.33
2022-08-29T05:33:24.481Z,83.06
2022-08-29T05:35:51.210Z,83.17
2022-08-29T05:38:18.048Z,83.64
2022-08-29T05:40:44.903Z,83.57
2022-08-29T05:43:12.115Z,83.76
2022-08-29T05:45:39.076Z,83.69
2022-08-29T05:48:08.042Z,83.86
2022-08-29T05:50:44.621Z,83.59
2022-08-29T05:53:13.253Z,83.66
2022-08-29T05:55:44.505Z,83.52
2022-08-29T05:58:12.160Z,83.21
2022-08-29T06:00:41.672Z,83.35
2022-08-29T06:03:09.823Z,83.41
2022-08-29T06:05:37.281Z,83.47
2022-08-29T06:08:04.494Z,83.24
2022-08-29T06:10:31.294Z,83.41
2022-08-29T06:12:58.043Z,83.23
2022-08-29T06:15:28.503Z,83.26
2022-08-29T06:17:55.491Z,83.61
2022-08-29T06:20:22.286Z,83.30
2022-08-29T06:22:49.050Z,83.39
2022-08-29T06:25:38.003Z,83.64
2022-08-29T06:28:02.922Z,83.39
2022-08-29T06:30:32.094Z,83.67
2022-08-29T06:32:59.659Z,83.36
2022-08-29T06:35:26.442Z,83.29
2022-08-29T06:37:53.139Z,83.14
2022-08-29T06:40:20.063Z,83.45
2022-08-29T06:42:47.028Z,83.26
2022-08-29T06:45:13.803Z,83.15
2022-08-29T06:47:40.606Z,82.94
2022-08-29T06:50:07.833Z,82.93
2022-08-29T06:52:35.714Z,82.71
2022-08-29T06:55:03.028Z,82.84
2022-08-29T06:57:29.932Z,83.02
2022-08-29T07:00:12.426Z,83.00
2022-08-29T07:02:47.743Z,83.20
2022-08-29T07:05:20.274Z,83.41
2022-08-29T07:07:47.023Z,83.37
2022-08-29T07:10:18.673Z,83.24
2022-08-29T07:12:49.930Z,82.71
2022-08-29T07:15:16.826Z,82.71
2022-08-29T07:17:45.845Z,82.88
2022-08-29T07:20:12.887Z,82.78
2022-08-29T07:22:39.712Z,82.74
2022-08-29T07:25:08.677Z,82.72
2022-08-29T07:27:35.873Z,82.61
2022-08-29T07:30:06.626Z,82.65
2022-08-29T07:32:49.347Z,82.17
2022-08-29T07:35:29.626Z,82.40
2022-08-29T07:38:01.877Z,81.87
2022-08-29T07:40:36.645Z,81.78
2022-08-29T07:43:06.227Z,81.84
2022-08-29T07:45:37.849Z,82.03
2022-08-29T07:48:08.076Z,81.81
2022-08-29T07:50:36.861Z,81.88
2022-08-29T07:53:03.560Z,81.72
2022-08-29T07:55:30.394Z,81.44
2022-08-29T07:57:57.109Z,81.20
2022-08-29T08:00:23.852Z,81.35
2022-08-29T08:02:51.488Z,80.98
2022-08-29T08:05:18.538Z,80.84
2022-08-29T08:07:45.320Z,80.74
2022-08-29T08:10:16.429Z,80.69
2022-08-29T08:12:44.090Z,80.86
2022-08-29T08:15:11.094Z,80.98
2022-08-29T08:17:42.067Z,80.54
2022-08-29T08:20:11.796Z,80.30
2022-08-29T08:22:38.533Z,80.20
2022-08-29T08:25:06.447Z,80.50
2022-08-29T08:27:34.629Z,80.21
2022-08-29T08:30:05.230Z,80.16
2022-08-29T08:32:32.867Z,79.97
2022-08-29T08:34:59.902Z,79.84
2022-08-29T08:37:27.861Z,79.50
2022-08-29T08:39:59.023Z,79.57
2022-08-29T08:42:42.314Z,80.00
2022-08-29T08:45:14.398Z,79.72
2022-08-29T08:47:46.250Z,79.83
2022-08-29T08:50:21.958Z,79.51
2022-08-29T08:53:31.010Z,79.34
2022-08-29T08:56:00.034Z,79.05
2022-08-29T08:58:48.946Z,79.11
2022-08-29T09:01:26.907Z,79.08
2022-08-29T09:04:42.518Z,78.53
2022-08-29T09:08:04.585Z,78.16
2022-08-29T09:11:08.336Z,78.19
2022-08-29T09:14:08.691Z,77.96
2022-08-29T09:17:05.981Z,78.16
2022-08-29T09:20:04.166Z,78.35
2022-08-29T09:23:06.488Z,77.92
2022-08-29T09:26:00.914Z,77.85
2022-08-29T09:28:50.093Z,77.90
2022-08-29T09:31:51.021Z,77.59
2022-08-29T09:35:04.308Z,77.85
2022-08-29T09:37:44.262Z,77.93
2022-08-29T09:40:56.585Z,77.74
2022-08-29T09:43:28.605Z,77.63
2022-08-29T09:46:10.757Z,77.55
2022-08-29T09:52:25.282Z,77.15
2022-08-29T09:58:42.972Z,77.14
2022-08-29T10:01:18.425Z,77.43
2022-08-29T10:04:08.798Z,77.21
2022-08-29T10:06:46.230Z,77.46
2022-08-29T10:12:19.623Z,77.88
2022-08-29T10:14:53.777Z,77.61
2022-08-29T10:40:36.649Z,78.64
2022-08-29T10:43:23.659Z,78.29
2022-08-29T10:46:35.653Z,78.16
2022-08-29T10:49:16.546Z,77.22
2022-08-29T10:52:03.819Z,76.64
2022-08-29T10:54:38.430Z,76.14
2022-08-29T10:57:06.079Z,75.87
2022-08-29T10:59:53.195Z,75.47
2022-08-29T11:02:37.973Z,75.07
2022-08-29T11:05:13.792Z,75.05
2022-08-29T11:07:48.438Z,74.66
2022-08-29T11:10:20.517Z,75.04
2022-08-29T11:13:05.771Z,74.85
2022-08-29T11:15:40.742Z,74.56
2022-08-29T11:18:28.161Z,73.64
2022-08-29T11:27:21.908Z,73.49
2022-08-29T11:29:57.722Z,73.19
2022-08-29T11:36:07.521Z,73.43
2022-08-29T11:38:53.351Z,73.53
2022-08-29T11:58:46.386Z,74.00
2022-08-29T12:21:18.894Z,74.46
2022-08-29T12:24:17.576Z,74.68
2022-08-29T12:26:48.942Z,73.97
2022-08-29T12:29:31.944Z,73.64
2022-08-29T12:32:40.057Z,73.31
2022-08-29T12:35:39.674Z,73.25
2022-08-29T12:38:32.962Z,72.89
2022-08-29T12:57:18.810Z,73.04
2022-08-29T12:59:48.072Z,72.76
2022-08-29T13:05:36.212Z,72.10
2022-08-29T13:08:11.082Z,71.72
2022-08-29T13:11:11.480Z,71.66
2022-08-29T13:13:38.989Z,70.85
2022-08-29T13:16:08.698Z,70.71
2022-08-29T13:18:53.928Z,70.59
2022-08-29T13:21:27.206Z,70.69
2022-08-29T13:24:02.600Z,70.35
2022-08-29T13:26:32.607Z,70.52
2022-08-29T13:29:12.572Z,70.02
2022-08-29T13:34:21.482Z,69.29
2022-08-29T13:37:17.227Z,69.22
2022-08-29T13:39:48.695Z,69.09
2022-08-29T13:42:25.555Z,68.44
2022-08-29T13:45:02.574Z,67.97
2022-08-29T13:47:33.219Z,67.12
2022-08-29T13:50:02.826Z,66.81
2022-08-29T13:52:31.586Z,65.73
2022-08-29T13:54:59.599Z,66.37
2022-08-29T13:57:29.289Z,66.04
2022-08-29T13:59:57.258Z,65.60
2022-08-29T14:02:25.272Z,64.98
2022-08-29T14:04:52.176Z,64.81
2022-08-29T14:07:25.313Z,64.39
2022-08-29T14:09:52.009Z,63.86
2022-08-29T14:12:19.326Z,63.78
2022-08-29T14:14:48.272Z,63.57
2022-08-29T14:17:18.151Z,62.87
2022-08-29T14:19:46.621Z,62.69
2022-08-29T14:22:14.008Z,62.36
2022-08-29T14:24:41.382Z,61.76
2022-08-29T14:27:08.682Z,62.14
2022-08-29T14:29:36.496Z,62.43
2022-08-29T14:32:03.663Z,62.64
2022-08-29T14:34:32.287Z,63.15
2022-08-29T14:37:02.719Z,63.40
2022-08-29T14:39:29.439Z,63.23
2022-08-29T14:41:56.328Z,63.74
2022-08-29T14:44:23.651Z,64.10
2022-08-29T14:46:50.980Z,64.32
2022-08-29T14:49:18.516Z,64.57
2022-08-29T14:51:45.532Z,64.73
2022-08-29T14:54:12.791Z,65.01
2022-08-29T14:56:49.532Z,64.63
2022-08-29T14:59:18.319Z,64.32
2022-08-29T15:01:51.076Z,64.56
2022-08-29T15:04:21.733Z,64.07
2022-08-29T15:07:01.999Z,63.72
2022-08-29T15:09:28.761Z,62.50
2022-08-29T15:11:55.469Z,61.63
2022-08-29T15:14:22.768Z,61.30
2022-08-29T15:16:49.517Z,61.90
2022-08-29T15:20:10.680Z,62.26
2022-08-29T15:22:03.644Z,62.50
2022-08-29T15:24:30.459Z,62.29
2022-08-29T15:26:57.940Z,61.50
2022-08-29T15:29:52.830Z,60.91
2022-08-29T15:32:29.349Z,59.38
2022-08-29T15:34:56.125Z,59.12
2022-08-29T15:37:23.478Z,58.49
2022-08-29T15:39:52.342Z,58.61
2022-08-29T15:42:26.611Z,59.08
2022-08-29T15:44:53.288Z,59.61
2022-08-29T15:47:21.912Z,59.93
2022-08-29T15:49:53.814Z,60.29
2022-08-29T15:52:20.667Z,60.72
2022-08-29T15:54:47.357Z,61.34
2022-08-29T15:57:14.105Z,61.85
2022-08-29T15:59:57.467Z,62.04
2022-08-29T16:02:25.231Z,62.19
2022-08-29T16:04:56.431Z,62.68
2022-08-29T16:07:28.857Z,62.66
2022-08-29T16:09:57.238Z,63.06
2022-08-29T16:12:23.952Z,63.58
2022-08-29T16:14:59.670Z,63.62
2022-08-29T16:17:29.886Z,63.96
2022-08-29T16:20:34.013Z,63.91
2022-08-29T16:23:23.857Z,64.33
2022-08-29T16:25:50.561Z,64.11
2022-08-29T16:28:17.557Z,64.35
2022-08-29T16:30:49.784Z,64.24
2022-08-29T16:33:16.601Z,64.46
2022-08-29T16:35:43.782Z,64.36
2022-08-29T16:38:11.210Z,64.72
2022-08-29T16:40:38.373Z,64.44
2022-08-29T16:43:05.790Z,64.94
2022-08-29T16:45:33.107Z,64.86
2022-08-29T16:48:00.237Z,65.18
2022-08-29T16:50:27.473Z,65.21
2022-08-29T16:52:54.369Z,64.79
2022-08-29T16:55:21.369Z,65.07
2022-08-29T16:58:08.084Z,64.62
2022-08-29T17:00:34.975Z,64.59
2022-08-29T17:03:02.057Z,63.91
2022-08-29T17:05:29.027Z,63.26
2022-08-29T17:07:55.728Z,63.02
2022-08-29T17:10:22.704Z,62.73
2022-08-29T17:12:51.865Z,62.58
2022-08-29T17:15:18.781Z,62.85
2022-08-29T17:17:45.522Z,62.70
2022-08-29T17:20:13.153Z,63.40
2022-08-29T17:22:40.764Z,63.67
2022-08-29T17:25:08.121Z,63.50
2022-08-29T17:27:34.832Z,63.87
2022-08-29T17:30:03.690Z,64.24
2022-08-29T17:32:30.653Z,64.48
2022-08-29T17:34:57.366Z,64.52
2022-08-29T17:37:24.522Z,64.92
2022-08-29T17:39:51.289Z,65.20
2022-08-29T17:42:18.261Z,65.49
2022-08-29T17:44:46.448Z,65.46
2022-08-29T17:47:22.151Z,65.74
2022-08-29T17:49:49.268Z,65.94
2022-08-29T17:52:16.062Z,65.71
2022-08-29T17:54:42.980Z,65.72
2022-08-29T17:57:09.773Z,65.58
2022-08-29T17:59:37.404Z,65.99
2022-08-29T18:02:05.252Z,66.38
2022-08-29T18:04:32.486Z,66.36
2022-08-29T18:07:06.027Z,67.06
2022-08-29T18:09:38.372Z,67.15
2022-08-29T18:12:10.910Z,67.37
2022-08-29T18:14:41.653Z,68.14
2022-08-29T18:17:11.559Z,68.16
2022-08-29T18:19:38.923Z,68.81
2022-08-29T18:22:16.760Z,69.14
2022-08-29T18:24:43.888Z,69.19
2022-08-29T18:27:10.760Z,69.23
2022-08-29T18:29:40.133Z,69.63
2022-08-29T18:32:10.944Z,69.89
2022-08-29T18:34:46.014Z,70.08
2022-08-29T18:37:22.645Z,70.83
2022-08-29T18:39:49.656Z,71.49
2022-08-29T18:42:36.752Z,71.81
2022-08-29T18:45:04.938Z,72.50
2022-08-29T18:47:31.666Z,72.89
2022-08-29T18:50:17.097Z,73.05
2022-08-29T18:52:45.715Z,72.93
2022-08-29T18:55:16.021Z,72.64
2022-08-29T18:57:44.388Z,72.42
2022-08-29T19:21:05.946Z,72.83
2022-08-29T19:37:10.103Z,74.21
2022-08-29T19:49:47.107Z,74.88
2022-08-29T19:52:37.158Z,75.13
2022-08-29T20:18:32.544Z,76.15
2022-08-29T20:59:26.957Z,78.20
2022-08-29T21:14:18.309Z,79.03
2022-08-29T21:17:08.377Z,79.37
2022-08-29T21:19:47.599Z,79.28
2022-08-29T21:22:48.007Z,79.19
2022-08-29T21:25:21.889Z,79.52
2022-08-29T21:28:09.919Z,79.53
2022-08-29T21:31:36.494Z,79.45
2022-08-29T22:31:35.564Z,80.57
2022-08-29T22:34:26.695Z,80.66
2022-08-29T22:46:55.140Z,80.65
2022-08-29T22:53:41.959Z,80.89
2022-08-29T22:57:22.412Z,80.73
2022-08-29T23:00:27.909Z,80.99
2022-08-29T23:03:27.567Z,80.56
2022-08-29T23:07:23.129Z,80.53
2022-08-29T23:18:21.674Z,81.27
2022-08-29T23:32:40.823Z,81.77
2022-08-29T23:53:40.363Z,81.97
